sensor_id;sensor_type;location;lat;lon;timestamp;temperature;humidity
8537;DHT22;4306;50.210;10.628;2022-09-02T00:02:15;14.90;87.00
8537;DHT22;4306;50.210;10.628;2022-09-02T00:04:42;14.80;87.20
8537;DHT22;4306;50.210;10.628;2022-09-02T00:07:11;14.80;87.60
8537;DHT22;4306;50.210;10.628;2022-09-02T00:09:38;14.80;87.70
8537;DHT22;4306;50.210;10.628;2022-09-02T00:12:06;14.70;87.70
8537;DHT22;4306;50.210;10.628;2022-09-02T00:14:36;14.70;87.00
8537;DHT22;4306;50.210;10.628;2022-09-02T00:17:03;14.70;87.70
8537;DHT22;4306;50.210;10.628;2022-09-02T00:19:31;14.70;87.80
8537;DHT22;4306;50.210;10.628;2022-09-02T00:22:00;14.70;88.00
8537;DHT22;4306;50.210;10.628;2022-09-02T00:24:29;14.70;87.60
8537;DHT22;4306;50.210;10.628;2022-09-02T00:26:56;14.70;87.50
8537;DHT22;4306;50.210;10.628;2022-09-02T00:29:24;14.70;88.50
8537;DHT22;4306;50.210;10.628;2022-09-02T00:31:51;14.60;88.60
8537;DHT22;4306;50.210;10.628;2022-09-02T00:34:18;14.60;88.20
8537;DHT22;4306;50.210;10.628;2022-09-02T00:36:45;14.70;87.70
8537;DHT22;4306;50.210;10.628;2022-09-02T00:39:12;14.70;87.20
8537;DHT22;4306;50.210;10.628;2022-09-02T00:41:42;14.80;87.40
8537;DHT22;4306;50.210;10.628;2022-09-02T00:44:10;14.80;87.40
8537;DHT22;4306;50.210;10.628;2022-09-02T00:46:38;14.90;87.70
8537;DHT22;4306;50.210;10.628;2022-09-02T00:49:10;14.90;87.80
8537;DHT22;4306;50.210;10.628;2022-09-02T00:51:41;14.80;88.20
8537;DHT22;4306;50.210;10.628;2022-09-02T00:54:10;14.70;88.60
8537;DHT22;4306;50.210;10.628;2022-09-02T00:56:41;14.60;88.40
8537;DHT22;4306;50.210;10.628;2022-09-02T00:59:12;14.60;88.60
8537;DHT22;4306;50.210;10.628;2022-09-02T01:01:40;14.70;88.60
8537;DHT22;4306;50.210;10.628;2022-09-02T01:04:07;14.70;87.90
8537;DHT22;4306;50.210;10.628;2022-09-02T01:06:34;14.70;88.40
8537;DHT22;4306;50.210;10.628;2022-09-02T01:09:04;14.80;87.70
8537;DHT22;4306;50.210;10.628;2022-09-02T01:11:37;14.80;87.40
8537;DHT22;4306;50.210;10.628;2022-09-02T01:14:06;14.80;87.60
8537;DHT22;4306;50.210;10.628;2022-09-02T01:16:39;14.80;88.00
8537;DHT22;4306;50.210;10.628;2022-09-02T01:19:14;14.80;88.00
8537;DHT22;4306;50.210;10.628;2022-09-02T01:21:47;14.80;87.50
8537;DHT22;4306;50.210;10.628;2022-09-02T01:24:15;14.80;87.50
8537;DHT22;4306;50.210;10.628;2022-09-02T01:26:42;14.90;87.50
8537;DHT22;4306;50.210;10.628;2022-09-02T01:29:09;14.90;87.50
8537;DHT22;4306;50.210;10.628;2022-09-02T01:31:37;14.90;87.90
8537;DHT22;4306;50.210;10.628;2022-09-02T01:34:04;14.90;87.70
8537;DHT22;4306;50.210;10.628;2022-09-02T01:36:32;14.90;87.50
8537;DHT22;4306;50.210;10.628;2022-09-02T01:39:00;14.90;87.50
8537;DHT22;4306;50.210;10.628;2022-09-02T01:41:27;14.90;87.30
8537;DHT22;4306;50.210;10.628;2022-09-02T01:43:54;14.90;87.20
8537;DHT22;4306;50.210;10.628;2022-09-02T01:46:21;14.90;87.50
8537;DHT22;4306;50.210;10.628;2022-09-02T01:48:49;14.80;88.30
8537;DHT22;4306;50.210;10.628;2022-09-02T01:51:18;14.80;87.90
8537;DHT22;4306;50.210;10.628;2022-09-02T01:53:46;14.80;88.00
8537;DHT22;4306;50.210;10.628;2022-09-02T01:56:15;14.80;88.60
8537;DHT22;4306;50.210;10.628;2022-09-02T01:58:42;14.60;88.90
8537;DHT22;4306;50.210;10.628;2022-09-02T02:01:10;14.60;88.90
8537;DHT22;4306;50.210;10.628;2022-09-02T02:03:37;14.60;89.20
8537;DHT22;4306;50.210;10.628;2022-09-02T02:06:08;14.60;89.00
8537;DHT22;4306;50.210;10.628;2022-09-02T02:08:36;14.50;89.00
8537;DHT22;4306;50.210;10.628;2022-09-02T02:11:03;14.50;89.40
8537;DHT22;4306;50.210;10.628;2022-09-02T02:13:31;14.50;89.00
8537;DHT22;4306;50.210;10.628;2022-09-02T02:15:58;14.50;89.00
8537;DHT22;4306;50.210;10.628;2022-09-02T02:18:25;14.50;89.00
8537;DHT22;4306;50.210;10.628;2022-09-02T02:20:52;14.50;88.90
8537;DHT22;4306;50.210;10.628;2022-09-02T02:23:19;14.50;88.60
8537;DHT22;4306;50.210;10.628;2022-09-02T02:25:49;14.40;89.00
8537;DHT22;4306;50.210;10.628;2022-09-02T02:28:16;14.30;89.30
8537;DHT22;4306;50.210;10.628;2022-09-02T02:30:44;14.20;89.10
8537;DHT22;4306;50.210;10.628;2022-09-02T02:33:11;14.50;89.30
8537;DHT22;4306;50.210;10.628;2022-09-02T02:35:38;14.20;89.00
8537;DHT22;4306;50.210;10.628;2022-09-02T02:38:05;14.20;88.90
8537;DHT22;4306;50.210;10.628;2022-09-02T02:40:33;14.20;88.90
8537;DHT22;4306;50.210;10.628;2022-09-02T02:43:00;14.10;88.90
8537;DHT22;4306;50.210;10.628;2022-09-02T02:45:27;14.00;88.90
8537;DHT22;4306;50.210;10.628;2022-09-02T02:47:55;13.90;89.30
8537;DHT22;4306;50.210;10.628;2022-09-02T02:50:24;13.90;90.00
8537;DHT22;4306;50.210;10.628;2022-09-02T02:52:51;13.80;90.10
8537;DHT22;4306;50.210;10.628;2022-09-02T02:55:20;13.80;89.50
8537;DHT22;4306;50.210;10.628;2022-09-02T02:57:47;13.70;90.00
8537;DHT22;4306;50.210;10.628;2022-09-02T03:00:17;13.70;90.20
8537;DHT22;4306;50.210;10.628;2022-09-02T03:02:44;13.60;90.30
8537;DHT22;4306;50.210;10.628;2022-09-02T03:05:13;13.60;90.50
8537;DHT22;4306;50.210;10.628;2022-09-02T03:07:41;13.50;90.40
8537;DHT22;4306;50.210;10.628;2022-09-02T03:10:09;13.50;90.60
8537;DHT22;4306;50.210;10.628;2022-09-02T03:12:37;13.40;90.90
8537;DHT22;4306;50.210;10.628;2022-09-02T03:15:06;13.30;91.20
8537;DHT22;4306;50.210;10.628;2022-09-02T03:17:34;13.20;91.40
8537;DHT22;4306;50.210;10.628;2022-09-02T03:20:02;13.10;91.80
8537;DHT22;4306;50.210;10.628;2022-09-02T03:22:31;13.00;92.00
8537;DHT22;4306;50.210;10.628;2022-09-02T03:24:58;12.90;91.80
8537;DHT22;4306;50.210;10.628;2022-09-02T03:27:24;12.90;92.00
8537;DHT22;4306;50.210;10.628;2022-09-02T03:29:51;12.90;92.30
8537;DHT22;4306;50.210;10.628;2022-09-02T03:32:18;12.80;92.30
8537;DHT22;4306;50.210;10.628;2022-09-02T03:34:45;12.80;92.00
8537;DHT22;4306;50.210;10.628;2022-09-02T03:37:12;12.80;92.20
8537;DHT22;4306;50.210;10.628;2022-09-02T03:39:40;12.80;92.50
8537;DHT22;4306;50.210;10.628;2022-09-02T03:42:07;12.60;92.80
8537;DHT22;4306;50.210;10.628;2022-09-02T03:44:34;12.50;93.00
8537;DHT22;4306;50.210;10.628;2022-09-02T03:47:01;12.40;93.20
8537;DHT22;4306;50.210;10.628;2022-09-02T03:49:28;12.40;93.20
8537;DHT22;4306;50.210;10.628;2022-09-02T03:51:55;12.40;93.50
8537;DHT22;4306;50.210;10.628;2022-09-02T03:54:22;12.30;93.40
8537;DHT22;4306;50.210;10.628;2022-09-02T03:56:51;12.20;93.70
8537;DHT22;4306;50.210;10.628;2022-09-02T03:59:18;12.20;93.70
8537;DHT22;4306;50.210;10.628;2022-09-02T04:01:45;12.10;93.90
8537;DHT22;4306;50.210;10.628;2022-09-02T04:04:12;12.10;94.00
8537;DHT22;4306;50.210;10.628;2022-09-02T04:06:39;12.00;94.10
8537;DHT22;4306;50.210;10.628;2022-09-02T04:09:06;12.00;94.30
8537;DHT22;4306;50.210;10.628;2022-09-02T04:11:33;11.90;94.60
8537;DHT22;4306;50.210;10.628;2022-09-02T04:14:03;11.90;94.70
8537;DHT22;4306;50.210;10.628;2022-09-02T04:23:13;11.80;95.00
8537;DHT22;4306;50.210;10.628;2022-09-02T04:25:41;11.90;94.80
8537;DHT22;4306;50.210;10.628;2022-09-02T04:28:08;11.90;95.10
8537;DHT22;4306;50.210;10.628;2022-09-02T04:30:38;11.80;94.60
8537;DHT22;4306;50.210;10.628;2022-09-02T04:33:05;11.90;94.60
8537;DHT22;4306;50.210;10.628;2022-09-02T04:35:32;11.90;94.50
8537;DHT22;4306;50.210;10.628;2022-09-02T04:38:00;11.90;94.50
8537;DHT22;4306;50.210;10.628;2022-09-02T04:40:27;11.90;94.50
8537;DHT22;4306;50.210;10.628;2022-09-02T04:42:54;11.90;94.50
8537;DHT22;4306;50.210;10.628;2022-09-02T04:45:21;11.90;94.50
8537;DHT22;4306;50.210;10.628;2022-09-02T04:47:49;11.90;94.60
8537;DHT22;4306;50.210;10.628;2022-09-02T04:50:17;11.90;94.50
8537;DHT22;4306;50.210;10.628;2022-09-02T04:52:43;12.00;94.20
8537;DHT22;4306;50.210;10.628;2022-09-02T04:55:10;12.00;94.00
8537;DHT22;4306;50.210;10.628;2022-09-02T04:57:37;12.00;94.10
8537;DHT22;4306;50.210;10.628;2022-09-02T05:00:07;11.90;94.40
8537;DHT22;4306;50.210;10.628;2022-09-02T05:02:34;12.00;94.00
8537;DHT22;4306;50.210;10.628;2022-09-02T05:05:03;12.00;94.90
8537;DHT22;4306;50.210;10.628;2022-09-02T05:07:30;12.00;95.70
8537;DHT22;4306;50.210;10.628;2022-09-02T05:09:58;12.00;96.30
8537;DHT22;4306;50.210;10.628;2022-09-02T05:12:25;12.00;96.30
8537;DHT22;4306;50.210;10.628;2022-09-02T05:14:53;12.10;95.60
8537;DHT22;4306;50.210;10.628;2022-09-02T05:17:20;12.10;95.30
8537;DHT22;4306;50.210;10.628;2022-09-02T05:19:47;12.20;95.30
8537;DHT22;4306;50.210;10.628;2022-09-02T05:22:16;12.30;95.50
8537;DHT22;4306;50.210;10.628;2022-09-02T05:24:43;12.40;95.60
8537;DHT22;4306;50.210;10.628;2022-09-02T05:27:11;12.50;96.00
8537;DHT22;4306;50.210;10.628;2022-09-02T05:29:40;12.50;95.60
8537;DHT22;4306;50.210;10.628;2022-09-02T05:32:08;12.60;95.60
8537;DHT22;4306;50.210;10.628;2022-09-02T05:34:35;12.60;95.80
8537;DHT22;4306;50.210;10.628;2022-09-02T05:37:02;12.70;96.00
8537;DHT22;4306;50.210;10.628;2022-09-02T05:39:31;12.80;95.80
8537;DHT22;4306;50.210;10.628;2022-09-02T05:41:58;12.80;95.70
8537;DHT22;4306;50.210;10.628;2022-09-02T05:44:25;12.80;95.70
8537;DHT22;4306;50.210;10.628;2022-09-02T05:46:53;12.90;95.50
8537;DHT22;4306;50.210;10.628;2022-09-02T05:49:20;12.90;95.50
8537;DHT22;4306;50.210;10.628;2022-09-02T05:51:49;13.00;95.50
8537;DHT22;4306;50.210;10.628;2022-09-02T05:54:19;13.10;95.60
8537;DHT22;4306;50.210;10.628;2022-09-02T05:56:56;13.10;95.50
8537;DHT22;4306;50.210;10.628;2022-09-02T05:59:25;13.20;95.50
8537;DHT22;4306;50.210;10.628;2022-09-02T06:01:54;13.30;95.40
8537;DHT22;4306;50.210;10.628;2022-09-02T06:04:21;13.30;95.30
8537;DHT22;4306;50.210;10.628;2022-09-02T06:06:49;13.40;95.30
8537;DHT22;4306;50.210;10.628;2022-09-02T06:09:19;13.40;95.30
8537;DHT22;4306;50.210;10.628;2022-09-02T06:11:49;13.50;95.20
8537;DHT22;4306;50.210;10.628;2022-09-02T06:14:17;13.50;95.20
8537;DHT22;4306;50.210;10.628;2022-09-02T06:16:45;13.60;95.30
8537;DHT22;4306;50.210;10.628;2022-09-02T06:19:13;13.60;95.20
8537;DHT22;4306;50.210;10.628;2022-09-02T06:21:40;13.70;95.10
8537;DHT22;4306;50.210;10.628;2022-09-02T06:24:09;13.80;95.00
8537;DHT22;4306;50.210;10.628;2022-09-02T06:26:36;13.80;95.10
8537;DHT22;4306;50.210;10.628;2022-09-02T06:29:05;13.90;94.90
8537;DHT22;4306;50.210;10.628;2022-09-02T06:31:32;13.90;94.60
8537;DHT22;4306;50.210;10.628;2022-09-02T06:33:59;14.10;94.70
8537;DHT22;4306;50.210;10.628;2022-09-02T06:36:29;14.10;94.60
8537;DHT22;4306;50.210;10.628;2022-09-02T06:38:57;14.20;94.60
8537;DHT22;4306;50.210;10.628;2022-09-02T06:41:26;14.20;94.70
8537;DHT22;4306;50.210;10.628;2022-09-02T06:43:54;14.30;94.40
8537;DHT22;4306;50.210;10.628;2022-09-02T06:46:25;14.40;94.30
8537;DHT22;4306;50.210;10.628;2022-09-02T06:48:52;14.50;94.30
8537;DHT22;4306;50.210;10.628;2022-09-02T06:51:21;14.60;94.00
8537;DHT22;4306;50.210;10.628;2022-09-02T06:53:48;14.70;94.00
8537;DHT22;4306;50.210;10.628;2022-09-02T06:56:15;14.80;93.90
8537;DHT22;4306;50.210;10.628;2022-09-02T06:58:42;14.80;93.80
8537;DHT22;4306;50.210;10.628;2022-09-02T07:01:16;14.90;93.80
8537;DHT22;4306;50.210;10.628;2022-09-02T07:03:44;15.00;93.70
8537;DHT22;4306;50.210;10.628;2022-09-02T07:06:33;15.10;93.70
8537;DHT22;4306;50.210;10.628;2022-09-02T07:09:03;15.10;93.50
8537;DHT22;4306;50.210;10.628;2022-09-02T07:11:30;15.20;93.30
8537;DHT22;4306;50.210;10.628;2022-09-02T07:13:58;15.30;93.10
8537;DHT22;4306;50.210;10.628;2022-09-02T07:16:27;15.40;92.80
8537;DHT22;4306;50.210;10.628;2022-09-02T07:18:56;15.40;92.80
8537;DHT22;4306;50.210;10.628;2022-09-02T07:21:25;15.50;92.90
8537;DHT22;4306;50.210;10.628;2022-09-02T07:23:54;15.60;92.90
8537;DHT22;4306;50.210;10.628;2022-09-02T07:26:21;15.70;92.50
8537;DHT22;4306;50.210;10.628;2022-09-02T07:28:49;15.80;92.40
8537;DHT22;4306;50.210;10.628;2022-09-02T07:31:16;15.80;92.40
8537;DHT22;4306;50.210;10.628;2022-09-02T07:33:44;15.90;92.10
8537;DHT22;4306;50.210;10.628;2022-09-02T07:36:14;16.10;92.00
8537;DHT22;4306;50.210;10.628;2022-09-02T07:38:41;16.30;91.60
8537;DHT22;4306;50.210;10.628;2022-09-02T07:41:09;16.30;91.20
8537;DHT22;4306;50.210;10.628;2022-09-02T07:43:38;16.40;91.30
8537;DHT22;4306;50.210;10.628;2022-09-02T07:46:06;16.50;91.20
8537;DHT22;4306;50.210;10.628;2022-09-02T07:48:33;16.60;90.70
8537;DHT22;4306;50.210;10.628;2022-09-02T07:51:01;16.70;90.70
8537;DHT22;4306;50.210;10.628;2022-09-02T07:53:30;16.70;90.90
8537;DHT22;4306;50.210;10.628;2022-09-02T07:55:57;16.80;90.60
8537;DHT22;4306;50.210;10.628;2022-09-02T07:58:26;16.90;90.50
8537;DHT22;4306;50.210;10.628;2022-09-02T08:00:53;16.90;90.40
8537;DHT22;4306;50.210;10.628;2022-09-02T08:03:21;17.00;90.50
8537;DHT22;4306;50.210;10.628;2022-09-02T08:05:48;17.00;90.00
8537;DHT22;4306;50.210;10.628;2022-09-02T08:08:18;17.10;89.40
8537;DHT22;4306;50.210;10.628;2022-09-02T08:10:49;17.20;88.80
8537;DHT22;4306;50.210;10.628;2022-09-02T08:13:16;17.30;89.00
8537;DHT22;4306;50.210;10.628;2022-09-02T08:15:44;17.40;89.30
8537;DHT22;4306;50.210;10.628;2022-09-02T08:18:11;17.50;88.70
8537;DHT22;4306;50.210;10.628;2022-09-02T08:20:38;17.60;86.90
8537;DHT22;4306;50.210;10.628;2022-09-02T08:23:05;17.70;88.00
8537;DHT22;4306;50.210;10.628;2022-09-02T08:25:32;17.70;87.40
8537;DHT22;4306;50.210;10.628;2022-09-02T08:28:01;17.80;86.90
8537;DHT22;4306;50.210;10.628;2022-09-02T08:30:28;17.90;85.70
8537;DHT22;4306;50.210;10.628;2022-09-02T08:32:56;18.00;86.60
8537;DHT22;4306;50.210;10.628;2022-09-02T08:35:23;18.00;85.80
8537;DHT22;4306;50.210;10.628;2022-09-02T08:37:50;18.20;85.00
8537;DHT22;4306;50.210;10.628;2022-09-02T08:40:19;18.20;85.30
8537;DHT22;4306;50.210;10.628;2022-09-02T08:42:48;18.30;84.60
8537;DHT22;4306;50.210;10.628;2022-09-02T08:45:22;18.40;84.60
8537;DHT22;4306;50.210;10.628;2022-09-02T08:47:57;18.50;84.20
8537;DHT22;4306;50.210;10.628;2022-09-02T08:50:30;18.60;82.40
8537;DHT22;4306;50.210;10.628;2022-09-02T08:53:03;18.80;80.40
8537;DHT22;4306;50.210;10.628;2022-09-02T08:55:41;18.80;81.40
8537;DHT22;4306;50.210;10.628;2022-09-02T08:58:17;18.90;80.10
8537;DHT22;4306;50.210;10.628;2022-09-02T09:00:52;19.00;80.00
8537;DHT22;4306;50.210;10.628;2022-09-02T09:03:26;19.00;79.70
8537;DHT22;4306;50.210;10.628;2022-09-02T09:06:01;19.10;79.60
8537;DHT22;4306;50.210;10.628;2022-09-02T09:08:37;19.10;78.50
8537;DHT22;4306;50.210;10.628;2022-09-02T09:11:14;19.40;77.80
8537;DHT22;4306;50.210;10.628;2022-09-02T09:14:06;19.40;76.20
8537;DHT22;4306;50.210;10.628;2022-09-02T09:16:43;19.50;75.80
8537;DHT22;4306;50.210;10.628;2022-09-02T09:19:13;19.60;75.60
8537;DHT22;4306;50.210;10.628;2022-09-02T09:21:41;19.60;75.90
8537;DHT22;4306;50.210;10.628;2022-09-02T09:24:18;19.60;76.30
8537;DHT22;4306;50.210;10.628;2022-09-02T09:26:47;19.60;74.90
8537;DHT22;4306;50.210;10.628;2022-09-02T09:29:14;19.50;75.00
8537;DHT22;4306;50.210;10.628;2022-09-02T09:31:43;19.60;75.40
8537;DHT22;4306;50.210;10.628;2022-09-02T09:34:13;19.70;76.60
8537;DHT22;4306;50.210;10.628;2022-09-02T09:36:49;19.70;75.50
8537;DHT22;4306;50.210;10.628;2022-09-02T09:39:23;19.90;73.90
8537;DHT22;4306;50.210;10.628;2022-09-02T09:41:52;20.00;76.00
8537;DHT22;4306;50.210;10.628;2022-09-02T09:44:43;20.20;75.50
8537;DHT22;4306;50.210;10.628;2022-09-02T09:47:16;20.20;74.90
8537;DHT22;4306;50.210;10.628;2022-09-02T09:49:45;20.30;73.40
8537;DHT22;4306;50.210;10.628;2022-09-02T09:52:22;20.50;68.50
8537;DHT22;4306;50.210;10.628;2022-09-02T09:55:15;20.50;66.80
8537;DHT22;4306;50.210;10.628;2022-09-02T09:57:43;20.40;70.20
8537;DHT22;4306;50.210;10.628;2022-09-02T10:00:20;20.50;71.00
8537;DHT22;4306;50.210;10.628;2022-09-02T10:02:50;20.60;71.60
8537;DHT22;4306;50.210;10.628;2022-09-02T10:05:30;20.60;71.90
8537;DHT22;4306;50.210;10.628;2022-09-02T10:07:59;20.70;63.70
8537;DHT22;4306;50.210;10.628;2022-09-02T10:10:28;20.70;64.00
8537;DHT22;4306;50.210;10.628;2022-09-02T10:12:57;20.70;63.70
8537;DHT22;4306;50.210;10.628;2022-09-02T10:15:33;20.70;61.50
8537;DHT22;4306;50.210;10.628;2022-09-02T10:18:14;20.80;61.70
8537;DHT22;4306;50.210;10.628;2022-09-02T10:20:50;21.00;62.40
8537;DHT22;4306;50.210;10.628;2022-09-02T10:23:27;20.90;62.40
8537;DHT22;4306;50.210;10.628;2022-09-02T10:26:05;21.10;63.30
8537;DHT22;4306;50.210;10.628;2022-09-02T10:31:28;21.30;66.30
8537;DHT22;4306;50.210;10.628;2022-09-02T10:34:07;21.50;66.10
8537;DHT22;4306;50.210;10.628;2022-09-02T10:36:43;21.60;63.80
8537;DHT22;4306;50.210;10.628;2022-09-02T10:39:22;21.90;61.60
8537;DHT22;4306;50.210;10.628;2022-09-02T10:41:53;22.10;61.40
8537;DHT22;4306;50.210;10.628;2022-09-02T10:44:30;22.20;61.60
8537;DHT22;4306;50.210;10.628;2022-09-02T10:47:00;22.20;61.50
8537;DHT22;4306;50.210;10.628;2022-09-02T10:49:47;22.20;61.60
8537;DHT22;4306;50.210;10.628;2022-09-02T10:52:37;22.10;60.50
8537;DHT22;4306;50.210;10.628;2022-09-02T10:55:15;22.20;61.50
8537;DHT22;4306;50.210;10.628;2022-09-02T10:58:20;22.40;60.30
8537;DHT22;4306;50.210;10.628;2022-09-02T11:00:52;22.40;60.70
8537;DHT22;4306;50.210;10.628;2022-09-02T11:03:24;22.50;60.60
8537;DHT22;4306;50.210;10.628;2022-09-02T11:05:59;22.40;59.40
8537;DHT22;4306;50.210;10.628;2022-09-02T11:08:35;22.30;60.10
8537;DHT22;4306;50.210;10.628;2022-09-02T11:11:08;22.30;59.10
8537;DHT22;4306;50.210;10.628;2022-09-02T11:13:42;22.30;59.80
8537;DHT22;4306;50.210;10.628;2022-09-02T11:16:19;22.50;60.20
8537;DHT22;4306;50.210;10.628;2022-09-02T11:18:54;22.50;59.30
8537;DHT22;4306;50.210;10.628;2022-09-02T11:21:35;22.50;58.60
8537;DHT22;4306;50.210;10.628;2022-09-02T11:24:09;22.40;58.00
8537;DHT22;4306;50.210;10.628;2022-09-02T11:26:45;22.20;59.00
8537;DHT22;4306;50.210;10.628;2022-09-02T11:29:16;22.20;58.80
8537;DHT22;4306;50.210;10.628;2022-09-02T11:31:48;22.20;58.90
8537;DHT22;4306;50.210;10.628;2022-09-02T11:34:23;22.20;59.00
8537;DHT22;4306;50.210;10.628;2022-09-02T11:37:01;22.10;58.90
8537;DHT22;4306;50.210;10.628;2022-09-02T11:39:32;22.30;58.10
8537;DHT22;4306;50.210;10.628;2022-09-02T11:42:11;22.10;56.50
8537;DHT22;4306;50.210;10.628;2022-09-02T11:45:15;22.30;58.10
8537;DHT22;4306;50.210;10.628;2022-09-02T11:48:04;22.50;57.70
8537;DHT22;4306;50.210;10.628;2022-09-02T11:50:52;22.40;56.50
8537;DHT22;4306;50.210;10.628;2022-09-02T11:53:25;22.40;57.10
8537;DHT22;4306;50.210;10.628;2022-09-02T11:55:56;22.60;58.10
8537;DHT22;4306;50.210;10.628;2022-09-02T11:58:33;22.80;58.00
8537;DHT22;4306;50.210;10.628;2022-09-02T12:01:15;22.80;56.80
8537;DHT22;4306;50.210;10.628;2022-09-02T12:03:46;23.10;57.40
8537;DHT22;4306;50.210;10.628;2022-09-02T12:06:16;23.10;56.20
8537;DHT22;4306;50.210;10.628;2022-09-02T12:09:10;22.80;55.10
8537;DHT22;4306;50.210;10.628;2022-09-02T12:21:10;22.90;56.30
8537;DHT22;4306;50.210;10.628;2022-09-02T12:27:10;23.20;56.90
8537;DHT22;4306;50.210;10.628;2022-09-02T12:29:44;23.40;56.70
8537;DHT22;4306;50.210;10.628;2022-09-02T12:32:11;23.40;56.90
8537;DHT22;4306;50.210;10.628;2022-09-02T12:34:55;23.20;56.20
8537;DHT22;4306;50.210;10.628;2022-09-02T12:37:52;23.20;56.50
8537;DHT22;4306;50.210;10.628;2022-09-02T12:40:33;23.30;56.50
8537;DHT22;4306;50.210;10.628;2022-09-02T12:43:05;23.40;56.80
8537;DHT22;4306;50.210;10.628;2022-09-02T12:45:43;23.60;56.90
8537;DHT22;4306;50.210;10.628;2022-09-02T12:48:14;23.50;56.20
8537;DHT22;4306;50.210;10.628;2022-09-02T12:50:54;23.40;55.90
8537;DHT22;4306;50.210;10.628;2022-09-02T12:53:32;23.20;55.30
8537;DHT22;4306;50.210;10.628;2022-09-02T12:56:02;23.30;56.20
8537;DHT22;4306;50.210;10.628;2022-09-02T12:58:34;23.30;55.20
8537;DHT22;4306;50.210;10.628;2022-09-02T13:01:15;23.40;56.10
8537;DHT22;4306;50.210;10.628;2022-09-02T13:09:48;23.60;56.10
8537;DHT22;4306;50.210;10.628;2022-09-02T13:12:55;23.60;54.60
8537;DHT22;4306;50.210;10.628;2022-09-02T13:15:50;23.60;54.90
8537;DHT22;4306;50.210;10.628;2022-09-02T13:18:49;23.90;56.00
8537;DHT22;4306;50.210;10.628;2022-09-02T13:24:44;23.90;55.00
8537;DHT22;4306;50.210;10.628;2022-09-02T13:27:40;23.90;55.20
8537;DHT22;4306;50.210;10.628;2022-09-02T13:30:17;24.00;55.10
8537;DHT22;4306;50.210;10.628;2022-09-02T13:32:55;24.20;55.90
8537;DHT22;4306;50.210;10.628;2022-09-02T13:35:25;24.20;55.10
8537;DHT22;4306;50.210;10.628;2022-09-02T13:37:54;24.10;54.90
8537;DHT22;4306;50.210;10.628;2022-09-02T13:40:26;24.10;54.30
8537;DHT22;4306;50.210;10.628;2022-09-02T13:42:54;24.20;54.40
8537;DHT22;4306;50.210;10.628;2022-09-02T13:45:22;24.30;54.80
8537;DHT22;4306;50.210;10.628;2022-09-02T13:47:53;24.20;53.60
8537;DHT22;4306;50.210;10.628;2022-09-02T13:50:22;24.20;54.30
8537;DHT22;4306;50.210;10.628;2022-09-02T13:52:52;24.30;54.60
8537;DHT22;4306;50.210;10.628;2022-09-02T13:55:20;24.40;54.40
8537;DHT22;4306;50.210;10.628;2022-09-02T13:57:54;24.50;54.60
8537;DHT22;4306;50.210;10.628;2022-09-02T14:00:29;24.40;54.50
8537;DHT22;4306;50.210;10.628;2022-09-02T14:03:01;24.20;53.60
8537;DHT22;4306;50.210;10.628;2022-09-02T14:05:29;24.30;54.60
8537;DHT22;4306;50.210;10.628;2022-09-02T14:07:59;24.20;53.70
8537;DHT22;4306;50.210;10.628;2022-09-02T14:10:29;24.20;54.00
8537;DHT22;4306;50.210;10.628;2022-09-02T14:12:58;24.20;54.80
8537;DHT22;4306;50.210;10.628;2022-09-02T14:15:27;24.10;53.80
8537;DHT22;4306;50.210;10.628;2022-09-02T14:18:11;24.10;54.80
8537;DHT22;4306;50.210;10.628;2022-09-02T14:20:50;24.10;54.30
8537;DHT22;4306;50.210;10.628;2022-09-02T14:23:18;24.30;54.50
8537;DHT22;4306;50.210;10.628;2022-09-02T14:25:49;24.40;54.60
8537;DHT22;4306;50.210;10.628;2022-09-02T14:28:19;24.20;53.80
8537;DHT22;4306;50.210;10.628;2022-09-02T14:30:55;23.80;54.20
8537;DHT22;4306;50.210;10.628;2022-09-02T14:33:26;23.70;54.60
8537;DHT22;4306;50.210;10.628;2022-09-02T14:35:55;23.40;55.20
8537;DHT22;4306;50.210;10.628;2022-09-02T14:38:23;23.30;55.60
8537;DHT22;4306;50.210;10.628;2022-09-02T14:40:59;23.40;56.10
8537;DHT22;4306;50.210;10.628;2022-09-02T14:43:27;23.60;55.80
8537;DHT22;4306;50.210;10.628;2022-09-02T14:46:04;23.50;56.00
8537;DHT22;4306;50.210;10.628;2022-09-02T14:48:37;23.70;55.60
8537;DHT22;4306;50.210;10.628;2022-09-02T14:51:05;23.90;55.70
8537;DHT22;4306;50.210;10.628;2022-09-02T14:53:33;24.00;56.00
8537;DHT22;4306;50.210;10.628;2022-09-02T14:56:03;24.20;55.30
8537;DHT22;4306;50.210;10.628;2022-09-02T14:58:30;24.10;54.40
8537;DHT22;4306;50.210;10.628;2022-09-02T15:00:58;23.70;55.00
8537;DHT22;4306;50.210;10.628;2022-09-02T15:03:26;23.70;55.40
8537;DHT22;4306;50.210;10.628;2022-09-02T15:05:55;23.60;55.30
8537;DHT22;4306;50.210;10.628;2022-09-02T15:08:23;23.60;55.60
8537;DHT22;4306;50.210;10.628;2022-09-02T15:10:50;23.70;55.60
8537;DHT22;4306;50.210;10.628;2022-09-02T15:13:25;23.90;55.40
8537;DHT22;4306;50.210;10.628;2022-09-02T15:15:55;23.90;54.90
8537;DHT22;4306;50.210;10.628;2022-09-02T15:18:24;24.00;55.10
8537;DHT22;4306;50.210;10.628;2022-09-02T15:20:51;24.00;55.60
8537;DHT22;4306;50.210;10.628;2022-09-02T15:23:20;24.00;55.70
8537;DHT22;4306;50.210;10.628;2022-09-02T15:25:47;24.00;55.30
8537;DHT22;4306;50.210;10.628;2022-09-02T15:28:14;24.00;55.10
8537;DHT22;4306;50.210;10.628;2022-09-02T15:30:41;24.10;55.10
8537;DHT22;4306;50.210;10.628;2022-09-02T15:33:08;24.00;54.90
8537;DHT22;4306;50.210;10.628;2022-09-02T15:35:35;23.90;54.70
8537;DHT22;4306;50.210;10.628;2022-09-02T15:38:02;23.70;54.90
8537;DHT22;4306;50.210;10.628;2022-09-02T15:40:31;23.70;55.10
8537;DHT22;4306;50.210;10.628;2022-09-02T15:42:58;23.70;55.00
8537;DHT22;4306;50.210;10.628;2022-09-02T15:45:25;23.60;54.40
8537;DHT22;4306;50.210;10.628;2022-09-02T15:47:56;23.60;54.50
8537;DHT22;4306;50.210;10.628;2022-09-02T15:50:23;23.50;55.30
8537;DHT22;4306;50.210;10.628;2022-09-02T15:52:50;23.60;55.60
8537;DHT22;4306;50.210;10.628;2022-09-02T15:55:17;23.60;54.90
8537;DHT22;4306;50.210;10.628;2022-09-02T15:57:45;23.50;54.60
8537;DHT22;4306;50.210;10.628;2022-09-02T16:00:13;23.40;55.30
8537;DHT22;4306;50.210;10.628;2022-09-02T16:02:40;23.50;55.40
8537;DHT22;4306;50.210;10.628;2022-09-02T16:05:08;23.50;55.40
8537;DHT22;4306;50.210;10.628;2022-09-02T16:07:37;23.50;55.10
8537;DHT22;4306;50.210;10.628;2022-09-02T16:10:05;23.40;54.90
8537;DHT22;4306;50.210;10.628;2022-09-02T16:12:32;23.30;55.20
8537;DHT22;4306;50.210;10.628;2022-09-02T16:15:00;23.40;55.70
8537;DHT22;4306;50.210;10.628;2022-09-02T16:17:27;23.30;55.20
8537;DHT22;4306;50.210;10.628;2022-09-02T16:19:54;23.20;55.20
8537;DHT22;4306;50.210;10.628;2022-09-02T16:22:21;23.20;55.40
8537;DHT22;4306;50.210;10.628;2022-09-02T16:24:48;23.10;55.70
8537;DHT22;4306;50.210;10.628;2022-09-02T16:27:15;23.20;56.00
8537;DHT22;4306;50.210;10.628;2022-09-02T16:30:05;23.00;55.70
8537;DHT22;4306;50.210;10.628;2022-09-02T16:32:32;23.00;56.00
8537;DHT22;4306;50.210;10.628;2022-09-02T16:34:59;23.00;56.20
8537;DHT22;4306;50.210;10.628;2022-09-02T16:37:26;22.90;56.00
8537;DHT22;4306;50.210;10.628;2022-09-02T16:39:53;22.90;56.00